createdAt,value
2018-02-04T00:01:17.975Z,31.03
2018-02-04T00:03:45.968Z,34.43
2018-02-04T00:06:13.528Z,40.10
2018-02-04T00:08:41.389Z,34.30
2018-02-04T00:11:08.925Z,34.63
2018-02-04T00:13:36.473Z,37.37
2018-02-04T00:16:04.076Z,35.47
2018-02-04T00:18:31.684Z,38.30
2018-02-04T00:20:59.281Z,35.17
2018-02-04T00:23:27.299Z,33.47
2018-02-04T00:25:55.312Z,34.77
2018-02-04T00:28:23.661Z,35.40
2018-02-04T00:30:51.317Z,34.80
2018-02-04T00:33:19.341Z,34.83
2018-02-04T00:35:46.897Z,37.83
2018-02-04T00:38:14.502Z,33.17
2018-02-04T00:40:42.062Z,32.63
2018-02-04T00:43:09.640Z,33.50
2018-02-04T00:45:37.248Z,28.07
2018-02-04T00:48:05.620Z,32.43
2018-02-04T00:50:33.229Z,28.97
2018-02-04T00:53:01.240Z,31.23
2018-02-04T00:55:29.023Z,32.93
2018-02-04T00:57:56.612Z,32.17
2018-02-04T01:00:27.209Z,30.37
2018-02-04T01:02:54.821Z,31.60
2018-02-04T01:05:23.188Z,26.57
2018-02-04T01:07:51.732Z,30.53
2018-02-04T01:10:19.352Z,27.60
2018-02-04T01:12:47.838Z,30.73
2018-02-04T01:15:15.365Z,31.97
2018-02-04T01:17:43.689Z,29.07
2018-02-04T01:20:11.218Z,35.07
2018-02-04T01:22:38.761Z,31.63
2018-02-04T01:25:07.544Z,32.37
2018-02-04T01:27:35.097Z,29.90
2018-02-04T01:30:02.640Z,30.33
2018-02-04T01:32:30.872Z,31.93
2018-02-04T01:34:58.868Z,30.57
2018-02-04T01:37:26.406Z,31.00
2018-02-04T01:39:53.953Z,32.43
2018-02-04T01:42:21.508Z,31.50
2018-02-04T01:44:49.049Z,34.57
2018-02-04T01:47:17.344Z,30.93
2018-02-04T01:49:45.781Z,45.33
2018-02-04T01:52:13.316Z,35.30
2018-02-04T01:54:44.286Z,31.97
2018-02-04T01:57:11.874Z,37.50
2018-02-04T01:59:40.210Z,33.83
2018-02-04T02:02:08.330Z,31.40
2018-02-04T02:04:35.886Z,38.53
2018-02-04T02:07:04.245Z,31.23
2018-02-04T02:09:32.572Z,39.83
2018-02-04T02:12:00.098Z,40.13
2018-02-04T02:14:28.391Z,32.77
2018-02-04T02:16:56.649Z,35.57
2018-02-04T02:19:25.172Z,37.63
2018-02-04T02:21:54.110Z,38.43
2018-02-04T02:24:21.623Z,30.83
2018-02-04T02:26:49.169Z,34.27
2018-02-04T02:29:16.738Z,35.60
2018-02-04T02:31:44.365Z,31.63
2018-02-04T02:34:12.709Z,39.70
2018-02-04T02:36:40.302Z,35.13
2018-02-04T02:39:07.857Z,33.47
2018-02-04T02:41:37.217Z,36.60
2018-02-04T02:44:04.810Z,30.60
2018-02-04T02:46:33.164Z,30.10
2018-02-04T02:49:00.740Z,34.83
2018-02-04T02:51:28.344Z,31.77
2018-02-04T02:53:56.909Z,31.33
2018-02-04T02:56:25.262Z,39.90
2018-02-04T02:58:52.807Z,35.63
2018-02-04T03:01:20.401Z,32.80
2018-02-04T03:03:49.177Z,31.70
2018-02-04T03:06:17.552Z,36.77
2018-02-04T03:08:45.107Z,36.80
2018-02-04T03:11:13.974Z,33.30
2018-02-04T03:13:41.534Z,42.97
2018-02-04T03:16:09.106Z,35.67
2018-02-04T03:18:36.687Z,35.43
2018-02-04T03:21:04.233Z,33.53
2018-02-04T03:23:32.196Z,36.67
2018-02-04T03:26:06.294Z,37.50
2018-02-04T03:28:34.104Z,39.70
2018-02-04T03:31:02.153Z,42.30
2018-02-04T03:33:31.026Z,39.30
2018-02-04T03:35:58.596Z,36.73
2018-02-04T03:38:26.152Z,37.67
2018-02-04T03:40:53.795Z,37.03
2018-02-04T03:43:21.384Z,42.70
2018-02-04T03:45:48.917Z,35.30
2018-02-04T03:48:16.915Z,37.87
2018-02-04T03:50:44.456Z,41.23
2018-02-04T03:53:12.308Z,38.43
2018-02-04T03:55:39.844Z,40.83
2018-02-04T03:58:07.379Z,35.13
2018-02-04T04:00:36.012Z,38.30
2018-02-04T04:03:03.564Z,29.53
2018-02-04T04:05:31.637Z,32.43
2018-02-04T04:07:59.187Z,24.57
2018-02-04T04:10:27.240Z,28.53
2018-02-04T04:12:54.769Z,34.97
2018-02-04T04:15:22.309Z,27.80
2018-02-04T04:17:49.883Z,27.70
2018-02-04T04:20:18.106Z,19.33
2018-02-04T04:22:45.636Z,28.40
2018-02-04T04:25:14.649Z,23.27
2018-02-04T04:27:42.189Z,23.73
2018-02-04T04:30:10.499Z,18.83
2018-02-04T04:32:38.482Z,29.73
2018-02-04T04:35:06.012Z,31.30
2018-02-04T04:37:34.298Z,32.97
2018-02-04T04:40:02.387Z,37.17
2018-02-04T04:42:30.058Z,39.90
2018-02-04T04:44:57.582Z,36.23
2018-02-04T04:47:25.113Z,43.53
2018-02-04T04:49:52.648Z,41.20
2018-02-04T04:52:20.173Z,47.67
2018-02-04T04:54:47.699Z,52.20
2018-02-04T04:57:15.988Z,42.23
2018-02-04T04:59:44.282Z,37.47
2018-02-04T05:02:11.812Z,40.63
2018-02-04T05:04:40.813Z,45.53
2018-02-04T05:07:11.545Z,48.80
2018-02-04T05:09:39.862Z,40.20
2018-02-04T05:12:09.062Z,42.00
2018-02-04T05:14:36.760Z,38.57
2018-02-04T05:17:04.292Z,43.83
2018-02-04T05:19:50.271Z,43.07
2018-02-04T05:22:18.117Z,41.63
2018-02-04T05:24:46.211Z,51.13
2018-02-04T05:27:14.224Z,44.07
2018-02-04T05:29:41.938Z,42.87
2018-02-04T05:32:09.488Z,39.50
2018-02-04T05:34:47.733Z,48.17
2018-02-04T05:37:15.261Z,49.43
2018-02-04T05:39:42.791Z,49.07
2018-02-04T05:42:11.091Z,51.13
2018-02-04T05:44:39.586Z,54.77
2018-02-04T05:47:07.103Z,54.23
2018-02-04T05:49:34.631Z,54.63
2018-02-04T05:52:02.168Z,48.43
2018-02-04T05:54:29.692Z,48.60
2018-02-04T05:56:57.242Z,44.53
2018-02-04T05:59:25.535Z,47.10
2018-02-04T06:01:53.832Z,51.30
2018-02-04T06:04:21.376Z,49.03
2018-02-04T06:06:48.908Z,51.60
2018-02-04T06:09:17.219Z,44.47
2018-02-04T06:11:45.089Z,45.40
2018-02-04T06:14:12.620Z,48.17
2018-02-04T06:16:40.166Z,48.13
2018-02-04T06:19:08.400Z,48.83
2018-02-04T06:21:35.952Z,52.10
2018-02-04T06:24:03.491Z,50.03
2018-02-04T06:26:31.666Z,51.63
2018-02-04T06:28:59.200Z,50.83
2018-02-04T06:31:27.495Z,52.03
2018-02-04T06:33:55.024Z,43.20
2018-02-04T06:36:22.551Z,44.50
2018-02-04T06:38:51.030Z,42.17
2018-02-04T06:41:18.588Z,45.37
2018-02-04T06:43:46.120Z,42.23
2018-02-04T06:46:13.651Z,42.43
2018-02-04T06:48:47.444Z,57.93
2018-02-04T06:51:15.236Z,48.77
2018-02-04T06:53:42.789Z,52.93
2018-02-04T06:56:10.416Z,46.33
2018-02-04T06:58:41.345Z,47.47
2018-02-04T07:01:08.964Z,56.27
2018-02-04T07:03:40.467Z,50.17
2018-02-04T07:06:08.100Z,52.70
2018-02-04T07:08:39.187Z,58.00
2018-02-04T07:11:07.487Z,53.97
2018-02-04T07:13:36.498Z,46.50
2018-02-04T07:16:04.025Z,44.80
2018-02-04T07:18:34.257Z,54.27
2018-02-04T07:21:03.344Z,44.47
2018-02-04T07:23:31.029Z,50.67
2018-02-04T07:25:58.568Z,47.90
2018-02-04T07:28:26.856Z,41.70
2018-02-04T07:30:56.201Z,37.13
2018-02-04T07:33:23.936Z,43.40
2018-02-04T07:35:51.820Z,32.57
2018-02-04T07:38:19.415Z,27.60
2018-02-04T07:40:47.425Z,24.33
2018-02-04T07:43:14.992Z,24.80
2018-02-04T07:45:42.523Z,26.83
2018-02-04T07:48:10.055Z,31.70
2018-02-04T07:50:38.379Z,25.87
2018-02-04T07:53:13.116Z,30.73
2018-02-04T07:55:40.857Z,30.93
2018-02-04T07:58:11.124Z,29.53
2018-02-04T08:00:55.416Z,28.70
2018-02-04T08:03:23.943Z,28.50
2018-02-04T08:05:51.927Z,21.33
2018-02-04T08:08:20.757Z,27.70
2018-02-04T08:10:48.317Z,27.80
2018-02-04T08:13:16.008Z,26.00
2018-02-04T08:15:57.709Z,28.70
2018-02-04T08:18:25.275Z,26.83
2018-02-04T08:20:53.937Z,29.83
2018-02-04T08:23:22.260Z,33.47
2018-02-04T08:25:52.974Z,33.37
2018-02-04T08:28:20.954Z,32.37
2018-02-04T08:30:48.512Z,30.53
2018-02-04T08:33:16.075Z,27.80
2018-02-04T08:35:43.693Z,28.53
2018-02-04T08:38:12.022Z,29.57
2018-02-04T08:40:39.779Z,29.77
2018-02-04T08:43:07.308Z,29.00
2018-02-04T08:45:41.752Z,32.87
2018-02-04T08:48:09.450Z,33.27
2018-02-04T08:50:36.991Z,30.90
2018-02-04T08:53:06.771Z,32.60
2018-02-04T08:55:35.216Z,32.40
2018-02-04T08:58:02.744Z,29.47
2018-02-04T09:00:30.268Z,31.80
2018-02-04T09:02:57.804Z,28.70
2018-02-04T09:05:26.128Z,27.10
2018-02-04T09:07:54.802Z,22.47
2018-02-04T09:10:22.378Z,24.73
2018-02-04T09:12:49.981Z,21.70
2018-02-04T09:15:18.453Z,23.20
2018-02-04T09:17:46.149Z,23.23
2018-02-04T09:20:14.427Z,17.53
2018-02-04T09:22:41.940Z,20.70
2018-02-04T09:25:09.484Z,19.23
2018-02-04T09:27:37.010Z,19.40
2018-02-04T09:30:04.528Z,21.50
2018-02-04T09:35:24.779Z,17.63
2018-02-04T09:37:52.306Z,17.80
2018-02-04T09:40:19.828Z,20.83
2018-02-04T09:42:47.492Z,19.87
2018-02-04T09:45:15.005Z,16.17
2018-02-04T09:47:42.540Z,18.30
2018-02-04T09:50:10.098Z,17.83
2018-02-04T09:52:37.615Z,18.03
2018-02-04T09:55:05.137Z,19.80
2018-02-04T09:57:33.420Z,17.27
2018-02-04T10:00:01.727Z,18.93
2018-02-04T10:02:31.103Z,18.80
2018-02-04T10:04:58.661Z,19.07
2018-02-04T10:07:26.192Z,17.37
2018-02-04T10:09:53.711Z,19.20
2018-02-04T10:12:21.255Z,21.97
2018-02-04T10:14:49.193Z,20.53
2018-02-04T10:17:17.488Z,21.93
2018-02-04T10:19:45.029Z,22.17
2018-02-04T10:22:13.738Z,20.67
2018-02-04T10:24:41.267Z,22.53
2018-02-04T10:27:09.561Z,21.33
2018-02-04T10:29:37.681Z,21.77
2018-02-04T10:32:05.209Z,22.17
2018-02-04T10:34:32.925Z,24.87
2018-02-04T10:37:00.904Z,23.07
2018-02-04T10:39:29.657Z,23.97
2018-02-04T10:41:57.173Z,22.20
2018-02-04T10:44:24.699Z,22.50
2018-02-04T10:46:52.345Z,23.30
2018-02-04T10:49:19.874Z,20.47
2018-02-04T10:51:53.120Z,25.53
2018-02-04T10:54:20.823Z,20.93
2018-02-04T10:56:48.384Z,20.77
2018-02-04T10:59:16.347Z,17.20
2018-02-04T11:01:44.716Z,17.73
2018-02-04T11:04:13.292Z,20.70
2018-02-04T11:06:41.596Z,18.47
2018-02-04T11:09:09.127Z,21.87
2018-02-04T11:11:37.427Z,21.17
2018-02-04T11:14:05.516Z,20.07
2018-02-04T11:16:33.064Z,20.67
2018-02-04T11:19:03.126Z,23.40
2018-02-04T11:21:30.661Z,21.43
2018-02-04T11:23:58.194Z,20.40
2018-02-04T11:26:25.720Z,15.63
2018-02-04T11:28:54.845Z,15.70
2018-02-04T11:31:22.373Z,17.90
2018-02-04T11:33:50.715Z,16.67
2018-02-04T11:36:19.100Z,15.43
2018-02-04T11:38:47.969Z,17.53
2018-02-04T11:41:15.536Z,15.80
2018-02-04T11:43:43.232Z,16.33
2018-02-04T11:46:11.520Z,15.17
2018-02-04T11:48:39.824Z,17.63
2018-02-04T11:51:07.368Z,13.97
2018-02-04T11:53:35.721Z,16.03
2018-02-04T11:56:03.374Z,17.20
2018-02-04T11:58:31.975Z,22.37
2018-02-04T12:00:59.564Z,15.50
2018-02-04T12:03:30.899Z,15.93
2018-02-04T12:05:59.192Z,16.60
2018-02-04T12:08:26.753Z,15.30
2018-02-04T12:10:54.284Z,15.20
2018-02-04T12:13:23.836Z,11.10
2018-02-04T12:15:52.372Z,15.67
2018-02-04T12:18:19.900Z,16.20
2018-02-04T12:20:50.728Z,16.90
2018-02-04T12:23:21.337Z,18.67
2018-02-04T12:25:48.861Z,15.23
2018-02-04T12:28:19.934Z,16.43
2018-02-04T12:30:47.460Z,13.40
2018-02-04T12:33:15.777Z,15.33
2018-02-04T12:35:44.829Z,13.90
2018-02-04T12:38:14.536Z,14.37
2018-02-04T12:40:45.177Z,12.77
2018-02-04T12:43:14.047Z,14.03
2018-02-04T12:45:41.662Z,14.00
2018-02-04T12:48:09.217Z,16.90
2018-02-04T12:50:36.744Z,14.37
2018-02-04T12:53:05.243Z,13.07
2018-02-04T12:55:33.186Z,14.27
2018-02-04T12:58:01.524Z,14.30
2018-02-04T13:00:29.570Z,16.47
2018-02-04T13:02:57.563Z,12.83
2018-02-04T13:05:25.687Z,12.30
2018-02-04T13:07:54.240Z,13.07
2018-02-04T13:10:21.809Z,14.93
2018-02-04T13:12:49.948Z,13.70
2018-02-04T13:15:17.464Z,12.63
2018-02-04T13:17:45.757Z,11.60
2018-02-04T13:20:13.433Z,12.30
2018-02-04T13:22:41.182Z,11.93
2018-02-04T13:25:11.472Z,15.97
2018-02-04T13:27:38.986Z,13.23
2018-02-04T13:30:06.521Z,13.87
2018-02-04T13:32:35.571Z,12.40
2018-02-04T13:35:04.247Z,19.07
2018-02-04T13:37:31.778Z,23.00
2018-02-04T13:40:02.183Z,20.37
2018-02-04T13:42:31.202Z,26.57
2018-02-04T13:44:58.717Z,15.77
2018-02-04T13:47:26.236Z,20.93
2018-02-04T13:49:54.203Z,17.07
2018-02-04T13:52:23.028Z,26.37
2018-02-04T13:54:50.558Z,19.27
2018-02-04T13:57:18.672Z,25.53
2018-02-04T13:59:46.961Z,24.53
2018-02-04T14:02:15.868Z,16.57
2018-02-04T14:04:43.394Z,24.80
2018-02-04T14:07:11.718Z,14.10
2018-02-04T14:09:39.236Z,32.10
2018-02-04T14:12:07.527Z,27.20
2018-02-04T14:14:36.246Z,22.93
2018-02-04T14:17:04.105Z,29.03
2018-02-04T14:19:31.668Z,23.07
2018-02-04T14:21:59.184Z,19.27
2018-02-04T14:24:27.900Z,16.40
2018-02-04T14:26:55.440Z,18.93
2018-02-04T14:29:23.748Z,15.40
2018-02-04T14:31:51.321Z,23.03
2018-02-04T14:34:19.182Z,20.40
2018-02-04T14:36:47.178Z,18.73
2018-02-04T14:39:14.720Z,16.03
2018-02-04T14:41:42.249Z,17.97
2018-02-04T14:44:10.100Z,14.43
2018-02-04T14:46:38.233Z,16.77
2018-02-04T14:49:07.933Z,16.20
2018-02-04T14:51:35.483Z,18.33
2018-02-04T14:54:03.453Z,19.53
2018-02-04T14:56:30.996Z,18.37
2018-02-04T14:58:59.217Z,16.43
2018-02-04T15:01:27.061Z,16.80
2018-02-04T15:03:55.044Z,62.90
2018-02-04T15:06:22.888Z,22.93
2018-02-04T15:08:50.863Z,18.97
2018-02-04T15:11:18.380Z,28.07
2018-02-04T15:13:46.673Z,24.93
2018-02-04T15:16:14.188Z,35.97
2018-02-04T15:18:42.090Z,17.63
2018-02-04T15:21:09.609Z,16.43
2018-02-04T15:23:37.217Z,13.23
2018-02-04T15:26:04.745Z,15.83
2018-02-04T15:28:33.177Z,12.13
2018-02-04T15:31:01.121Z,13.70
2018-02-04T15:33:28.650Z,12.40
2018-02-04T15:35:56.948Z,11.93
2018-02-04T15:38:24.461Z,14.63
2018-02-04T15:40:51.996Z,21.43
2018-02-04T15:43:19.511Z,15.80
2018-02-04T15:45:47.057Z,13.23
2018-02-04T15:48:14.978Z,14.03
2018-02-04T15:50:43.100Z,12.00
2018-02-04T15:53:11.414Z,19.53
2018-02-04T15:55:39.004Z,15.73
2018-02-04T15:58:07.428Z,17.13
2018-02-04T16:00:35.715Z,15.83
2018-02-04T16:03:04.002Z,14.13
2018-02-04T16:05:31.735Z,16.67
2018-02-04T16:08:00.023Z,15.17
2018-02-04T16:10:28.320Z,16.00
2018-02-04T16:12:55.865Z,16.03
2018-02-04T16:15:24.483Z,14.77
2018-02-04T16:17:51.992Z,13.70
2018-02-04T16:20:20.337Z,15.63
2018-02-04T16:22:47.865Z,16.27
2018-02-04T16:25:15.398Z,15.77
2018-02-04T16:27:42.938Z,13.40
2018-02-04T16:30:10.462Z,17.23
2018-02-04T16:32:38.784Z,14.37
2018-02-04T16:35:07.072Z,14.67
2018-02-04T16:37:35.381Z,14.07
2018-02-04T16:40:03.888Z,17.00
2018-02-04T16:42:31.423Z,14.03
2018-02-04T16:44:58.941Z,13.50
2018-02-04T16:47:26.471Z,12.70
2018-02-04T16:49:53.995Z,13.00
2018-02-04T16:52:22.895Z,13.13
2018-02-04T16:54:50.422Z,13.83
2018-02-04T16:57:17.959Z,13.40
2018-02-04T17:02:36.380Z,13.10
2018-02-04T17:05:03.912Z,13.47
2018-02-04T17:07:31.435Z,15.17
2018-02-04T17:09:59.024Z,12.87
2018-02-04T17:12:26.562Z,12.17
2018-02-04T17:14:54.103Z,13.60
2018-02-04T17:17:21.628Z,13.17
2018-02-04T17:19:49.233Z,14.37
2018-02-04T17:22:16.757Z,15.43
2018-02-04T17:24:44.283Z,14.50
2018-02-04T17:27:11.828Z,15.97
2018-02-04T17:29:40.121Z,14.07
2018-02-04T17:32:07.645Z,15.23
2018-02-04T17:34:35.183Z,16.37
2018-02-04T17:37:05.396Z,12.57
2018-02-04T17:39:33.183Z,13.83
2018-02-04T17:42:01.296Z,14.43
2018-02-04T17:44:28.835Z,15.27
2018-02-04T17:46:57.127Z,20.60
2018-02-04T17:49:25.430Z,15.87
2018-02-04T17:51:54.713Z,15.47
2018-02-04T17:54:22.595Z,16.13
2018-02-04T17:56:51.609Z,16.73
2018-02-04T17:59:19.136Z,16.03
2018-02-04T18:01:46.661Z,16.40
2018-02-04T18:04:14.197Z,15.40
2018-02-04T18:06:41.732Z,17.80
2018-02-04T18:09:09.285Z,19.83
2018-02-04T18:11:37.591Z,16.37
2018-02-04T18:14:05.118Z,16.87
2018-02-04T18:16:35.208Z,15.43
2018-02-04T18:19:03.507Z,20.67
2018-02-04T18:21:31.804Z,16.90
2018-02-04T18:24:00.098Z,16.93
2018-02-04T18:26:27.643Z,16.50
2018-02-04T18:28:55.212Z,15.83
2018-02-04T18:31:22.777Z,15.33
2018-02-04T18:33:50.366Z,16.60
2018-02-04T18:36:17.945Z,15.27
2018-02-04T18:38:45.877Z,14.07
2018-02-04T18:41:14.856Z,15.93
2018-02-04T18:43:42.944Z,15.10
2018-02-04T18:46:10.962Z,18.50
2018-02-04T18:48:38.550Z,16.53
2018-02-04T18:51:06.088Z,18.53
2018-02-04T18:53:33.621Z,13.73
2018-02-04T18:56:01.933Z,15.30
2018-02-04T18:58:29.576Z,13.03
2018-02-04T19:00:57.130Z,18.40
2018-02-04T19:03:24.664Z,15.07
2018-02-04T19:05:52.343Z,16.40
2018-02-04T19:08:27.830Z,31.43
2018-02-04T19:10:55.849Z,18.90
2018-02-04T19:13:24.405Z,18.47
2018-02-04T19:15:51.948Z,21.80
2018-02-04T19:18:19.681Z,34.83
2018-02-04T19:21:02.224Z,33.53
2018-02-04T19:23:30.648Z,20.17
2018-02-04T19:25:59.245Z,48.10
2018-02-04T19:28:30.086Z,45.70
2018-02-04T19:30:58.003Z,41.50
2018-02-04T19:33:26.521Z,23.40
2018-02-04T19:35:54.383Z,44.90
2018-02-04T19:38:21.968Z,35.90
2018-02-04T19:40:49.496Z,32.43
2018-02-04T19:43:18.047Z,35.03
2018-02-04T19:45:45.584Z,25.33
2018-02-04T19:48:13.809Z,21.00
2018-02-04T19:50:41.449Z,18.53
2018-02-04T19:53:08.968Z,17.20
2018-02-04T19:55:36.932Z,15.90
2018-02-04T19:58:04.495Z,12.80
2018-02-04T20:00:32.628Z,15.57
2018-02-04T20:03:00.167Z,15.13
2018-02-04T20:05:27.712Z,15.67
2018-02-04T20:07:55.273Z,14.33
2018-02-04T20:10:22.808Z,15.10
2018-02-04T20:12:51.426Z,14.03
2018-02-04T20:15:20.407Z,12.70
2018-02-04T20:17:47.956Z,16.30
2018-02-04T20:20:15.508Z,14.37
2018-02-04T20:22:47.908Z,14.63
2018-02-04T20:25:15.489Z,20.03
2018-02-04T20:27:43.060Z,12.67
2018-02-04T20:30:10.620Z,16.07
2018-02-04T20:32:50.572Z,13.73
2018-02-04T20:35:18.934Z,13.40
2018-02-04T20:37:46.535Z,13.50
2018-02-04T20:40:14.096Z,11.50
2018-02-04T20:42:41.683Z,12.60
2018-02-04T20:45:09.313Z,14.47
2018-02-04T20:47:42.702Z,12.20
2018-02-04T20:50:11.025Z,12.33
2018-02-04T20:52:38.650Z,11.70
2018-02-04T20:55:06.314Z,12.90
2018-02-04T20:57:34.845Z,14.00
2018-02-04T21:00:02.491Z,13.60
2018-02-04T21:02:30.088Z,16.53
2018-02-04T21:04:57.667Z,15.23
2018-02-04T21:07:25.990Z,11.60
2018-02-04T21:09:53.551Z,12.43
2018-02-04T21:12:21.150Z,10.67
2018-02-04T21:14:49.520Z,13.60
2018-02-04T21:17:18.964Z,11.93
2018-02-04T21:19:46.516Z,12.03
2018-02-04T21:22:14.157Z,11.83
2018-02-04T21:24:41.761Z,12.30
2018-02-04T21:27:09.376Z,14.93
2018-02-04T21:29:36.925Z,15.40
2018-02-04T21:32:04.456Z,13.63
2018-02-04T21:34:31.984Z,12.53
2018-02-04T21:36:59.525Z,13.80
2018-02-04T21:39:27.840Z,16.10
2018-02-04T21:41:56.204Z,17.47
2018-02-04T21:44:23.789Z,15.87
2018-02-04T21:46:51.565Z,16.33
2018-02-04T21:49:19.128Z,17.10
2018-02-04T21:51:47.133Z,18.53
2018-02-04T21:54:15.972Z,18.00
2018-02-04T21:56:43.545Z,15.93
2018-02-04T21:59:11.074Z,16.47
2018-02-04T22:01:38.611Z,14.57
2018-02-04T22:04:06.164Z,16.90
2018-02-04T22:06:33.720Z,15.63
2018-02-04T22:09:02.072Z,17.53
2018-02-04T22:11:29.606Z,20.43
2018-02-04T22:13:58.978Z,16.73
2018-02-04T22:16:27.272Z,19.47
2018-02-04T22:18:57.409Z,15.57
2018-02-04T22:21:24.944Z,15.83
2018-02-04T22:23:52.481Z,15.53
2018-02-04T22:26:20.791Z,16.47
2018-02-04T22:28:48.340Z,14.10
2018-02-04T22:31:15.877Z,17.40
2018-02-04T22:33:44.603Z,16.33
2018-02-04T22:36:12.148Z,18.93
2018-02-04T22:38:39.674Z,16.03
2018-02-04T22:41:08.768Z,16.73
2018-02-04T22:43:38.316Z,16.10
2018-02-04T22:46:06.403Z,17.30
2018-02-04T22:48:33.948Z,16.57
2018-02-04T22:51:01.503Z,18.00
2018-02-04T22:53:29.449Z,14.27
2018-02-04T22:55:56.992Z,15.80
2018-02-04T22:58:24.547Z,15.33
2018-02-04T23:00:52.853Z,17.23
2018-02-04T23:03:21.292Z,14.83
2018-02-04T23:05:48.845Z,16.40
2018-02-04T23:08:16.396Z,13.77
2018-02-04T23:10:44.706Z,14.70
2018-02-04T23:13:13.758Z,14.63
2018-02-04T23:15:41.586Z,15.63
2018-02-04T23:18:09.109Z,13.17
2018-02-04T23:20:36.651Z,14.60
2018-02-04T23:23:04.691Z,13.97
2018-02-04T23:25:32.681Z,14.93
2018-02-04T23:28:00.215Z,14.27
2018-02-04T23:30:27.750Z,17.53
2018-02-04T23:32:56.870Z,14.93
2018-02-04T23:35:25.159Z,15.43
2018-02-04T23:37:52.829Z,14.77
2018-02-04T23:40:20.356Z,16.20
2018-02-04T23:42:48.096Z,12.20
2018-02-04T23:45:24.764Z,15.23
2018-02-04T23:47:52.302Z,13.00
2018-02-04T23:50:19.822Z,16.63
2018-02-04T23:52:47.357Z,15.47
2018-02-04T23:55:15.690Z,18.27
2018-02-04T23:57:45.056Z,14.33
